Meteo Giornale » Osservazioni meteo Slovacchia » Piestany

ore: 02:00 - Osservazioni Meteo Piestany
Lat. 48° 37' N Lon. 17° 49' E Alt. 163 metri s.l.m.

sereno Europe/Bratislava

-3 °C

Sereno

Temp. 24 Ore

-7 °C

12 °C

Nord

5.5 Km/h

Dew point -9 °C

Umidità 63 %

Visibilità  10 Km

Il sole sorge alle ore 06:18

Il sole tramonta alle ore 19:24

Data e Ora Cielo e Fenomeni T °C DP °C Um. % Pres. hPa Vis. km Vento km/h
Oggi h: 02:00 sereno Sereno -3 -9 63 1011 10 N 5.5
Oggi h: 01:30 sereno Sereno -4 -9 68 1011 10 NO 7.4
Oggi h: 01:00 sereno Sereno -3 -10 58 1011 10 N 3.7
Oggi h: 00:30 sereno Sereno -2 -10 54 1011 10 N/NO 7.4
Oggi h: 00:00 sereno Sereno -2 -9 58 1011 10 N 5.5
Ieri h: 23:30 sereno Sereno -1 -10 50 1011 10 N 5.5
Ieri h: 23:00 sereno Sereno -1 -9 54 1011 10 N 5.5
Ieri h: 22:30 sereno Sereno -1 -9 54 1011 10 N 1.8
Ieri h: 22:00 sereno Sereno 2 -8 47 1011 10 N 3.7
Ieri h: 21:30 sereno Sereno 5 -9 35 1011 10 N 3.7
Ieri h: 21:00 sereno Sereno 6 -10 30 1011 10 SE 7.4
Ieri h: 20:30 sereno Sereno 7 -11 26 1011 10 SE 9.3
Ieri h: 20:00 sereno Sereno 8 -11 24 1011 10 SE 11.1
Ieri h: 19:30 sereno Sereno 9 -10 24 1011 10 S 7.4
Ieri h: 19:00 sereno Sereno 10 -11 21 1011 10 S 14.8
Ieri h: 18:00 sereno Sereno 11 -11 20 1012 10 S/SO 14.8
Ieri h: 17:30 sereno Sereno 11 -10 21 1012 10 S 11.1
Ieri h: 17:00 sereno Sereno 12 -10 20 1012 10 S 11.1
Ieri h: 16:30 sereno Sereno 11 -11 20 1012 10 S 14.8
Ieri h: 16:00 sereno Sereno 11 -10 21 1013 10 S/SO 18.5
Ieri h: 15:30 sereno Sereno 11 -10 21 1013 10 S/SE 16.7
Ieri h: 15:00 sereno Sereno 11 -10 21 1013 10 S 20.3
Ieri h: 14:30 sereno Sereno 11 -10 21 1014 10 S/SE 13
Ieri h: 14:00 sereno Sereno 11 -11 20 1014 10 S/SE 14.8
Ieri h: 13:30 sereno Sereno 11 -9 23 1015 10 S/SE 14.8
Ieri h: 13:00 sereno Sereno 10 -8 27 1015 10 S 13
Ieri h: 12:30 sereno Sereno 9 -10 24 1015 10 S/SO 20.3
Ieri h: 12:00 sereno Sereno 9 -9 26 1016 10 S 11.1
Ieri h: 11:30 sereno Sereno 8 -9 28 1016 10 S 13
Ieri h: 11:00 sereno Sereno 7 -9 30 1016 10 S 13
Ieri h: 10:30 sereno Sereno 7 -9 30 1016 10 S 11.1
Ieri h: 10:00 sereno Sereno 6 -8 35 1016 10 S/SE 7.4
Ieri h: 09:30 sereno Sereno 3 -7 47 1017 10 N 1.8
Ieri h: 09:00 sereno Sereno 1 -5 64 1017 10 N 5.5
Ieri h: 08:30 sereno Sereno -1 -5 74 1017 10 N/NE 9.3
Ieri h: 07:30 sereno Sereno -6 -9 79 1017 10 N 1.8
Ieri h: 07:00 sereno Sereno -7 -10 79 1017 10 N 3.7
Ieri h: 06:00 sereno Sereno -7 -10 79 1017 10 N 7.4
Ieri h: 05:30 sereno Sereno -7 -10 79 1017 10 N 11.1
Ieri h: 05:00 sereno Sereno -5 -8 79 1016 10 N 13
Ieri h: 04:30 sereno Sereno -6 -10 73 1017 10 N 5.5
Ieri h: 04:00 sereno Sereno -6 -10 73 1017 10 N 5.5
Ieri h: 03:30 sereno Sereno -7 -10 79 1017 10 N 5.5
Ieri h: 03:00 sereno Sereno -6 -10 73 1017 10 N 3.7